Galbraith, Louisiana
Current Conditions -  °F | °C
As of 12:53 PM on Thursday 27 Nov 2014 (Local Time) from KAEX Reporting Station
Clear Clear  
Wind Chill: 57°   Ceiling: Unl
Heat Index: 57°   Visibility: 10mi
Dew Point: 28°   Wind: 8mph
Humidity: 33%   Direction: 20°NNE
Pressure: 30.44"   Gusts: NA
Location:  31.4254°N, 92.7765°W
Report Text: KAEX 271853Z AUTO 02007KT 10SM CLR 14/M02 A3044 RMK AO2 SLP314 T01391022
Loading
Personal Weather Stations






























Interactive Weather Map New forecast layout! Learn more

10-Day Weather Forecast

Advertisements
Track Severe Weather on mobile